sensor_id;sensor_type;location;lat;lon;timestamp;temperature;humidity
50162;DHT22;36061;48.116;11.612;2023-08-12T00:00:33;19.20;99.90
50162;DHT22;36061;48.116;11.612;2023-08-12T00:03:02;19.20;99.90
50162;DHT22;36061;48.116;11.612;2023-08-12T00:05:29;19.10;99.90
50162;DHT22;36061;48.116;11.612;2023-08-12T00:07:57;19.10;99.90
50162;DHT22;36061;48.116;11.612;2023-08-12T00:10:24;19.10;99.90
50162;DHT22;36061;48.116;11.612;2023-08-12T00:12:53;19.10;99.90
50162;DHT22;36061;48.116;11.612;2023-08-12T00:15:20;19.10;99.90
50162;DHT22;36061;48.116;11.612;2023-08-12T00:17:47;19.00;99.90
50162;DHT22;36061;48.116;11.612;2023-08-12T00:20:15;19.00;99.90
50162;DHT22;36061;48.116;11.612;2023-08-12T00:22:43;19.00;99.90
50162;DHT22;36061;48.116;11.612;2023-08-12T00:25:10;19.00;99.90
50162;DHT22;36061;48.116;11.612;2023-08-12T00:27:38;19.00;99.90
50162;DHT22;36061;48.116;11.612;2023-08-12T00:30:07;19.00;99.90
50162;DHT22;36061;48.116;11.612;2023-08-12T00:32:35;18.90;99.90
50162;DHT22;36061;48.116;11.612;2023-08-12T00:35:02;18.90;99.90
50162;DHT22;36061;48.116;11.612;2023-08-12T00:37:30;18.90;99.90
50162;DHT22;36061;48.116;11.612;2023-08-12T00:39:57;18.90;99.90
50162;DHT22;36061;48.116;11.612;2023-08-12T00:42:24;18.90;99.90
50162;DHT22;36061;48.116;11.612;2023-08-12T00:44:51;18.80;99.90
50162;DHT22;36061;48.116;11.612;2023-08-12T00:47:21;18.80;99.90
50162;DHT22;36061;48.116;11.612;2023-08-12T00:49:48;18.70;99.90
50162;DHT22;36061;48.116;11.612;2023-08-12T00:52:17;18.70;99.90
50162;DHT22;36061;48.116;11.612;2023-08-12T00:54:45;18.70;99.90
50162;DHT22;36061;48.116;11.612;2023-08-12T00:57:13;18.70;99.90
50162;DHT22;36061;48.116;11.612;2023-08-12T00:59:41;18.70;99.90
50162;DHT22;36061;48.116;11.612;2023-08-12T01:02:11;18.70;99.90
50162;DHT22;36061;48.116;11.612;2023-08-12T01:04:40;18.60;99.90
50162;DHT22;36061;48.116;11.612;2023-08-12T01:07:08;18.60;99.90
50162;DHT22;36061;48.116;11.612;2023-08-12T01:09:35;18.60;99.90
50162;DHT22;36061;48.116;11.612;2023-08-12T01:12:04;18.60;99.90
50162;DHT22;36061;48.116;11.612;2023-08-12T01:14:38;18.60;99.90
50162;DHT22;36061;48.116;11.612;2023-08-12T01:17:08;18.60;99.90
50162;DHT22;36061;48.116;11.612;2023-08-12T01:19:38;18.60;99.90
50162;DHT22;36061;48.116;11.612;2023-08-12T01:22:09;18.50;99.90
50162;DHT22;36061;48.116;11.612;2023-08-12T01:24:39;18.50;99.90
50162;DHT22;36061;48.116;11.612;2023-08-12T01:27:08;18.50;99.90
50162;DHT22;36061;48.116;11.612;2023-08-12T01:29:38;18.50;99.90
50162;DHT22;36061;48.116;11.612;2023-08-12T01:32:11;18.50;99.90
50162;DHT22;36061;48.116;11.612;2023-08-12T01:34:43;18.50;99.90
50162;DHT22;36061;48.116;11.612;2023-08-12T01:37:17;18.40;99.90
50162;DHT22;36061;48.116;11.612;2023-08-12T01:39:52;18.40;99.90
50162;DHT22;36061;48.116;11.612;2023-08-12T01:42:21;18.40;99.90
50162;DHT22;36061;48.116;11.612;2023-08-12T01:44:50;18.40;99.90
50162;DHT22;36061;48.116;11.612;2023-08-12T01:47:17;18.30;99.90
50162;DHT22;36061;48.116;11.612;2023-08-12T01:49:44;18.30;99.90
50162;DHT22;36061;48.116;11.612;2023-08-12T01:52:11;18.30;99.90
50162;DHT22;36061;48.116;11.612;2023-08-12T01:54:39;18.30;99.90
50162;DHT22;36061;48.116;11.612;2023-08-12T01:57:08;18.20;99.90
50162;DHT22;36061;48.116;11.612;2023-08-12T01:59:35;18.20;99.90
50162;DHT22;36061;48.116;11.612;2023-08-12T02:02:03;18.20;99.90
50162;DHT22;36061;48.116;11.612;2023-08-12T02:04:32;18.20;99.90
50162;DHT22;36061;48.116;11.612;2023-08-12T02:06:59;18.10;99.90
50162;DHT22;36061;48.116;11.612;2023-08-12T02:09:27;18.10;99.90
50162;DHT22;36061;48.116;11.612;2023-08-12T02:11:54;18.10;99.90
50162;DHT22;36061;48.116;11.612;2023-08-12T02:14:22;18.10;99.90
50162;DHT22;36061;48.116;11.612;2023-08-12T02:16:50;18.00;99.90
50162;DHT22;36061;48.116;11.612;2023-08-12T02:19:17;18.00;99.90
50162;DHT22;36061;48.116;11.612;2023-08-12T02:21:45;18.00;99.90
50162;DHT22;36061;48.116;11.612;2023-08-12T02:24:12;18.00;99.90
50162;DHT22;36061;48.116;11.612;2023-08-12T02:26:39;18.00;99.90
50162;DHT22;36061;48.116;11.612;2023-08-12T02:29:07;17.90;99.90
50162;DHT22;36061;48.116;11.612;2023-08-12T02:31:35;17.90;99.90
50162;DHT22;36061;48.116;11.612;2023-08-12T02:34:03;17.80;99.90
50162;DHT22;36061;48.116;11.612;2023-08-12T02:36:30;17.80;99.90
50162;DHT22;36061;48.116;11.612;2023-08-12T02:38:57;17.80;99.90
50162;DHT22;36061;48.116;11.612;2023-08-12T02:41:25;17.70;99.90
50162;DHT22;36061;48.116;11.612;2023-08-12T02:43:53;17.70;99.90
50162;DHT22;36061;48.116;11.612;2023-08-12T02:46:20;17.70;99.90
50162;DHT22;36061;48.116;11.612;2023-08-12T02:48:48;17.60;99.90
50162;DHT22;36061;48.116;11.612;2023-08-12T02:51:16;17.60;99.90
50162;DHT22;36061;48.116;11.612;2023-08-12T02:53:43;17.60;99.90
50162;DHT22;36061;48.116;11.612;2023-08-12T02:56:10;17.60;99.90
50162;DHT22;36061;48.116;11.612;2023-08-12T02:58:37;17.60;99.90
50162;DHT22;36061;48.116;11.612;2023-08-12T03:01:05;17.60;99.90
50162;DHT22;36061;48.116;11.612;2023-08-12T03:03:32;17.60;99.90
50162;DHT22;36061;48.116;11.612;2023-08-12T03:06:00;17.50;99.90
50162;DHT22;36061;48.116;11.612;2023-08-12T03:08:29;17.50;99.90
50162;DHT22;36061;48.116;11.612;2023-08-12T03:10:59;17.50;99.90
50162;DHT22;36061;48.116;11.612;2023-08-12T03:13:28;17.50;99.90
50162;DHT22;36061;48.116;11.612;2023-08-12T03:15:56;17.50;99.90
50162;DHT22;36061;48.116;11.612;2023-08-12T03:18:23;17.50;99.90
50162;DHT22;36061;48.116;11.612;2023-08-12T03:20:50;17.50;99.90
50162;DHT22;36061;48.116;11.612;2023-08-12T03:23:21;17.50;99.90
50162;DHT22;36061;48.116;11.612;2023-08-12T03:25:48;17.50;99.90
50162;DHT22;36061;48.116;11.612;2023-08-12T03:28:16;17.40;99.90
50162;DHT22;36061;48.116;11.612;2023-08-12T03:30:50;17.30;99.90
50162;DHT22;36061;48.116;11.612;2023-08-12T03:33:20;17.30;99.90
50162;DHT22;36061;48.116;11.612;2023-08-12T03:35:48;17.30;99.90
50162;DHT22;36061;48.116;11.612;2023-08-12T03:38:15;17.30;99.90
50162;DHT22;36061;48.116;11.612;2023-08-12T03:40:45;17.30;99.90
50162;DHT22;36061;48.116;11.612;2023-08-12T03:43:15;17.30;99.90
50162;DHT22;36061;48.116;11.612;2023-08-12T03:45:44;17.30;99.90
50162;DHT22;36061;48.116;11.612;2023-08-12T03:48:13;17.20;99.90
50162;DHT22;36061;48.116;11.612;2023-08-12T03:50:41;17.20;99.90
50162;DHT22;36061;48.116;11.612;2023-08-12T03:53:09;17.20;99.90
50162;DHT22;36061;48.116;11.612;2023-08-12T03:55:37;17.20;99.90
50162;DHT22;36061;48.116;11.612;2023-08-12T03:58:07;17.20;99.90
50162;DHT22;36061;48.116;11.612;2023-08-12T04:00:34;17.20;99.90
50162;DHT22;36061;48.116;11.612;2023-08-12T04:03:03;17.20;99.90
50162;DHT22;36061;48.116;11.612;2023-08-12T04:05:30;17.20;99.90
50162;DHT22;36061;48.116;11.612;2023-08-12T04:07:57;17.10;99.90
50162;DHT22;36061;48.116;11.612;2023-08-12T04:10:24;17.10;99.90
50162;DHT22;36061;48.116;11.612;2023-08-12T04:12:52;17.10;99.90
50162;DHT22;36061;48.116;11.612;2023-08-12T04:15:21;17.10;99.90
50162;DHT22;36061;48.116;11.612;2023-08-12T04:17:49;17.10;99.90
50162;DHT22;36061;48.116;11.612;2023-08-12T04:20:17;17.10;99.90
50162;DHT22;36061;48.116;11.612;2023-08-12T04:22:45;17.10;99.90
50162;DHT22;36061;48.116;11.612;2023-08-12T04:25:13;17.10;99.90
50162;DHT22;36061;48.116;11.612;2023-08-12T04:27:40;17.00;99.90
50162;DHT22;36061;48.116;11.612;2023-08-12T04:30:08;17.00;99.90
50162;DHT22;36061;48.116;11.612;2023-08-12T04:32:38;17.00;99.90
50162;DHT22;36061;48.116;11.612;2023-08-12T04:35:08;17.00;99.90
50162;DHT22;36061;48.116;11.612;2023-08-12T04:37:37;17.00;99.90
50162;DHT22;36061;48.116;11.612;2023-08-12T04:40:06;17.10;99.90
50162;DHT22;36061;48.116;11.612;2023-08-12T04:42:34;17.10;99.90
50162;DHT22;36061;48.116;11.612;2023-08-12T04:45:03;17.10;99.90
50162;DHT22;36061;48.116;11.612;2023-08-12T04:47:31;17.10;99.90
50162;DHT22;36061;48.116;11.612;2023-08-12T04:50:01;17.10;99.90
50162;DHT22;36061;48.116;11.612;2023-08-12T04:52:29;17.10;99.90
50162;DHT22;36061;48.116;11.612;2023-08-12T04:54:56;17.10;99.90
50162;DHT22;36061;48.116;11.612;2023-08-12T04:57:25;17.20;99.90
50162;DHT22;36061;48.116;11.612;2023-08-12T04:59:53;17.20;99.90
50162;DHT22;36061;48.116;11.612;2023-08-12T05:02:21;17.20;99.90
50162;DHT22;36061;48.116;11.612;2023-08-12T05:04:49;17.40;99.90
50162;DHT22;36061;48.116;11.612;2023-08-12T05:07:18;17.60;99.90
50162;DHT22;36061;48.116;11.612;2023-08-12T05:09:45;17.80;99.90
50162;DHT22;36061;48.116;11.612;2023-08-12T05:12:14;18.00;99.90
50162;DHT22;36061;48.116;11.612;2023-08-12T05:14:42;18.10;99.90
50162;DHT22;36061;48.116;11.612;2023-08-12T05:17:09;18.20;99.90
50162;DHT22;36061;48.116;11.612;2023-08-12T05:19:37;18.30;99.90
50162;DHT22;36061;48.116;11.612;2023-08-12T05:22:04;18.40;99.90
50162;DHT22;36061;48.116;11.612;2023-08-12T05:24:33;18.50;99.90
50162;DHT22;36061;48.116;11.612;2023-08-12T05:27:00;18.50;99.90
50162;DHT22;36061;48.116;11.612;2023-08-12T05:29:28;18.50;99.90
50162;DHT22;36061;48.116;11.612;2023-08-12T05:31:55;18.50;99.90
50162;DHT22;36061;48.116;11.612;2023-08-12T05:34:22;18.40;99.90
50162;DHT22;36061;48.116;11.612;2023-08-12T05:36:49;18.40;99.90
50162;DHT22;36061;48.116;11.612;2023-08-12T05:39:17;18.40;99.90
50162;DHT22;36061;48.116;11.612;2023-08-12T05:41:45;18.40;99.90
50162;DHT22;36061;48.116;11.612;2023-08-12T05:44:12;18.50;99.90
50162;DHT22;36061;48.116;11.612;2023-08-12T05:46:40;18.60;99.90
50162;DHT22;36061;48.116;11.612;2023-08-12T05:49:07;18.70;99.90
50162;DHT22;36061;48.116;11.612;2023-08-12T05:51:34;18.80;99.90
50162;DHT22;36061;48.116;11.612;2023-08-12T05:54:01;19.00;99.90
50162;DHT22;36061;48.116;11.612;2023-08-12T05:56:29;19.10;99.90
50162;DHT22;36061;48.116;11.612;2023-08-12T05:58:57;19.40;99.90
50162;DHT22;36061;48.116;11.612;2023-08-12T06:01:24;19.90;99.90
50162;DHT22;36061;48.116;11.612;2023-08-12T06:03:52;20.70;99.90
50162;DHT22;36061;48.116;11.612;2023-08-12T06:06:19;21.70;99.90
50162;DHT22;36061;48.116;11.612;2023-08-12T06:08:47;22.60;99.90
50162;DHT22;36061;48.116;11.612;2023-08-12T06:11:14;23.50;99.90
50162;DHT22;36061;48.116;11.612;2023-08-12T06:13:42;24.30;99.90
50162;DHT22;36061;48.116;11.612;2023-08-12T06:16:10;24.70;99.90
50162;DHT22;36061;48.116;11.612;2023-08-12T06:18:37;24.70;99.90
50162;DHT22;36061;48.116;11.612;2023-08-12T06:21:05;24.40;99.90
50162;DHT22;36061;48.116;11.612;2023-08-12T06:23:32;24.00;99.90
50162;DHT22;36061;48.116;11.612;2023-08-12T06:25:59;23.60;99.90
50162;DHT22;36061;48.116;11.612;2023-08-12T06:28:26;23.20;99.90
50162;DHT22;36061;48.116;11.612;2023-08-12T06:30:54;22.80;99.90
50162;DHT22;36061;48.116;11.612;2023-08-12T06:33:22;22.60;99.90
50162;DHT22;36061;48.116;11.612;2023-08-12T06:35:50;22.40;99.90
50162;DHT22;36061;48.116;11.612;2023-08-12T06:38:18;22.30;99.90
50162;DHT22;36061;48.116;11.612;2023-08-12T06:40:45;22.30;99.90
50162;DHT22;36061;48.116;11.612;2023-08-12T06:43:12;22.20;99.90
50162;DHT22;36061;48.116;11.612;2023-08-12T06:45:39;22.40;99.90
50162;DHT22;36061;48.116;11.612;2023-08-12T06:48:06;22.70;99.90
50162;DHT22;36061;48.116;11.612;2023-08-12T06:50:35;23.10;99.90
50162;DHT22;36061;48.116;11.612;2023-08-12T06:53:02;23.80;99.90
50162;DHT22;36061;48.116;11.612;2023-08-12T06:55:30;24.10;99.90
50162;DHT22;36061;48.116;11.612;2023-08-12T06:57:57;24.20;99.90
50162;DHT22;36061;48.116;11.612;2023-08-12T07:00:24;23.90;99.90
50162;DHT22;36061;48.116;11.612;2023-08-12T07:02:51;23.60;99.90
50162;DHT22;36061;48.116;11.612;2023-08-12T07:05:18;23.40;99.90
50162;DHT22;36061;48.116;11.612;2023-08-12T07:07:47;23.40;99.90
50162;DHT22;36061;48.116;11.612;2023-08-12T07:10:14;23.50;99.90
50162;DHT22;36061;48.116;11.612;2023-08-12T07:12:42;23.60;99.90
50162;DHT22;36061;48.116;11.612;2023-08-12T07:15:09;23.70;99.90
50162;DHT22;36061;48.116;11.612;2023-08-12T07:17:37;23.80;99.90
50162;DHT22;36061;48.116;11.612;2023-08-12T07:20:06;23.90;99.90
50162;DHT22;36061;48.116;11.612;2023-08-12T07:22:33;24.00;99.90
50162;DHT22;36061;48.116;11.612;2023-08-12T07:25:02;24.10;99.90
50162;DHT22;36061;48.116;11.612;2023-08-12T07:27:30;24.10;99.90
50162;DHT22;36061;48.116;11.612;2023-08-12T07:29:57;24.00;99.90
50162;DHT22;36061;48.116;11.612;2023-08-12T07:32:24;23.90;99.90
50162;DHT22;36061;48.116;11.612;2023-08-12T07:34:51;23.90;99.90
50162;DHT22;36061;48.116;11.612;2023-08-12T07:37:19;23.90;99.90
50162;DHT22;36061;48.116;11.612;2023-08-12T07:39:46;23.80;99.90
50162;DHT22;36061;48.116;11.612;2023-08-12T07:42:14;23.80;99.90
50162;DHT22;36061;48.116;11.612;2023-08-12T07:44:42;23.70;99.90
50162;DHT22;36061;48.116;11.612;2023-08-12T07:47:09;23.70;99.90
50162;DHT22;36061;48.116;11.612;2023-08-12T07:49:36;23.70;99.90
50162;DHT22;36061;48.116;11.612;2023-08-12T07:52:04;23.70;99.90
50162;DHT22;36061;48.116;11.612;2023-08-12T07:54:31;23.70;99.90
50162;DHT22;36061;48.116;11.612;2023-08-12T07:56:58;23.80;99.90
50162;DHT22;36061;48.116;11.612;2023-08-12T07:59:27;23.80;99.90
50162;DHT22;36061;48.116;11.612;2023-08-12T08:01:54;23.80;99.90
50162;DHT22;36061;48.116;11.612;2023-08-12T08:04:21;23.90;99.90
50162;DHT22;36061;48.116;11.612;2023-08-12T08:06:48;23.90;99.90
50162;DHT22;36061;48.116;11.612;2023-08-12T08:09:16;24.00;99.90
50162;DHT22;36061;48.116;11.612;2023-08-12T08:11:43;24.10;99.90
50162;DHT22;36061;48.116;11.612;2023-08-12T08:14:10;24.20;99.90
50162;DHT22;36061;48.116;11.612;2023-08-12T08:16:38;24.30;99.90
50162;DHT22;36061;48.116;11.612;2023-08-12T08:19:07;24.40;99.90
50162;DHT22;36061;48.116;11.612;2023-08-12T08:21:35;24.50;99.90
50162;DHT22;36061;48.116;11.612;2023-08-12T08:24:03;24.50;99.90
50162;DHT22;36061;48.116;11.612;2023-08-12T08:26:30;24.60;99.90
50162;DHT22;36061;48.116;11.612;2023-08-12T08:28:57;24.70;99.90
50162;DHT22;36061;48.116;11.612;2023-08-12T08:31:24;24.80;99.90
50162;DHT22;36061;48.116;11.612;2023-08-12T08:33:53;24.90;99.90
50162;DHT22;36061;48.116;11.612;2023-08-12T08:36:20;25.00;99.90
50162;DHT22;36061;48.116;11.612;2023-08-12T08:38:49;25.20;99.90
50162;DHT22;36061;48.116;11.612;2023-08-12T08:41:16;25.30;99.90
50162;DHT22;36061;48.116;11.612;2023-08-12T08:43:44;25.50;99.90
50162;DHT22;36061;48.116;11.612;2023-08-12T08:46:15;25.60;99.90
50162;DHT22;36061;48.116;11.612;2023-08-12T08:48:42;25.70;99.90
50162;DHT22;36061;48.116;11.612;2023-08-12T08:51:11;25.90;99.90
50162;DHT22;36061;48.116;11.612;2023-08-12T08:53:39;26.00;99.90
50162;DHT22;36061;48.116;11.612;2023-08-12T08:56:07;26.10;99.90
50162;DHT22;36061;48.116;11.612;2023-08-12T08:58:37;26.10;99.90
50162;DHT22;36061;48.116;11.612;2023-08-12T09:01:05;26.20;99.90
50162;DHT22;36061;48.116;11.612;2023-08-12T09:03:36;26.30;99.90
50162;DHT22;36061;48.116;11.612;2023-08-12T09:06:04;26.40;99.90
50162;DHT22;36061;48.116;11.612;2023-08-12T09:08:33;26.50;99.90
50162;DHT22;36061;48.116;11.612;2023-08-12T09:11:02;26.40;99.90
50162;DHT22;36061;48.116;11.612;2023-08-12T09:13:29;26.40;99.90
50162;DHT22;36061;48.116;11.612;2023-08-12T09:15:57;26.40;99.90
50162;DHT22;36061;48.116;11.612;2023-08-12T09:18:25;26.30;99.90
50162;DHT22;36061;48.116;11.612;2023-08-12T09:20:53;26.30;99.90
50162;DHT22;36061;48.116;11.612;2023-08-12T09:23:21;26.30;99.90
50162;DHT22;36061;48.116;11.612;2023-08-12T09:25:49;26.40;99.90
50162;DHT22;36061;48.116;11.612;2023-08-12T09:28:16;26.50;99.90
50162;DHT22;36061;48.116;11.612;2023-08-12T09:30:50;26.60;99.90
50162;DHT22;36061;48.116;11.612;2023-08-12T09:33:24;26.60;99.90
50162;DHT22;36061;48.116;11.612;2023-08-12T09:35:52;26.60;99.90
50162;DHT22;36061;48.116;11.612;2023-08-12T09:38:21;26.50;99.90
50162;DHT22;36061;48.116;11.612;2023-08-12T09:40:52;26.50;99.90
50162;DHT22;36061;48.116;11.612;2023-08-12T09:43:23;26.60;99.90
50162;DHT22;36061;48.116;11.612;2023-08-12T09:45:50;26.70;99.90
50162;DHT22;36061;48.116;11.612;2023-08-12T09:48:18;26.80;99.90
50162;DHT22;36061;48.116;11.612;2023-08-12T09:50:45;26.80;99.90
50162;DHT22;36061;48.116;11.612;2023-08-12T09:53:13;26.90;99.90
50162;DHT22;36061;48.116;11.612;2023-08-12T09:55:40;26.90;99.90
50162;DHT22;36061;48.116;11.612;2023-08-12T09:58:12;26.80;99.90
50162;DHT22;36061;48.116;11.612;2023-08-12T10:00:42;26.70;99.90
50162;DHT22;36061;48.116;11.612;2023-08-12T10:03:11;26.60;99.90
50162;DHT22;36061;48.116;11.612;2023-08-12T10:05:40;26.60;99.90
50162;DHT22;36061;48.116;11.612;2023-08-12T10:08:08;26.60;99.90
50162;DHT22;36061;48.116;11.612;2023-08-12T10:10:36;26.60;99.90
50162;DHT22;36061;48.116;11.612;2023-08-12T10:13:03;26.60;99.90
50162;DHT22;36061;48.116;11.612;2023-08-12T10:15:34;26.60;99.90
50162;DHT22;36061;48.116;11.612;2023-08-12T10:18:03;26.60;99.90
50162;DHT22;36061;48.116;11.612;2023-08-12T10:20:32;26.70;99.90
50162;DHT22;36061;48.116;11.612;2023-08-12T10:23:00;26.70;99.90
50162;DHT22;36061;48.116;11.612;2023-08-12T10:25:31;26.80;99.90
50162;DHT22;36061;48.116;11.612;2023-08-12T10:28:00;26.80;99.90
50162;DHT22;36061;48.116;11.612;2023-08-12T10:30:29;26.80;99.90
50162;DHT22;36061;48.116;11.612;2023-08-12T10:32:58;26.90;99.90
50162;DHT22;36061;48.116;11.612;2023-08-12T10:35:43;26.90;99.90
50162;DHT22;36061;48.116;11.612;2023-08-12T10:38:13;26.90;99.90
50162;DHT22;36061;48.116;11.612;2023-08-12T10:40:40;26.90;99.90
50162;DHT22;36061;48.116;11.612;2023-08-12T10:43:08;26.90;99.90
50162;DHT22;36061;48.116;11.612;2023-08-12T10:45:42;26.80;99.90
50162;DHT22;36061;48.116;11.612;2023-08-12T10:48:17;26.80;99.90
50162;DHT22;36061;48.116;11.612;2023-08-12T10:50:45;26.90;99.90
50162;DHT22;36061;48.116;11.612;2023-08-12T10:53:23;26.80;99.90
50162;DHT22;36061;48.116;11.612;2023-08-12T10:55:56;27.00;99.90
50162;DHT22;36061;48.116;11.612;2023-08-12T10:58:26;27.10;99.90
50162;DHT22;36061;48.116;11.612;2023-08-12T11:00:53;27.20;99.90
50162;DHT22;36061;48.116;11.612;2023-08-12T11:03:22;27.20;99.90
50162;DHT22;36061;48.116;11.612;2023-08-12T11:05:50;27.20;99.90
50162;DHT22;36061;48.116;11.612;2023-08-12T11:08:24;27.20;99.90
50162;DHT22;36061;48.116;11.612;2023-08-12T11:10:55;27.20;99.90
50162;DHT22;36061;48.116;11.612;2023-08-12T11:13:27;27.30;99.90
50162;DHT22;36061;48.116;11.612;2023-08-12T11:16:06;27.30;99.90
50162;DHT22;36061;48.116;11.612;2023-08-12T11:18:34;27.40;99.90
50162;DHT22;36061;48.116;11.612;2023-08-12T11:21:02;27.40;99.90
50162;DHT22;36061;48.116;11.612;2023-08-12T11:23:30;27.50;99.90
50162;DHT22;36061;48.116;11.612;2023-08-12T11:25:58;27.50;99.90
50162;DHT22;36061;48.116;11.612;2023-08-12T11:28:25;27.50;99.90
50162;DHT22;36061;48.116;11.612;2023-08-12T11:30:52;27.50;99.90
50162;DHT22;36061;48.116;11.612;2023-08-12T11:33:20;27.60;99.90
50162;DHT22;36061;48.116;11.612;2023-08-12T11:35:49;27.60;99.90
50162;DHT22;36061;48.116;11.612;2023-08-12T11:38:16;27.70;99.90
50162;DHT22;36061;48.116;11.612;2023-08-12T11:40:43;27.70;99.90
50162;DHT22;36061;48.116;11.612;2023-08-12T11:43:10;27.70;99.90
50162;DHT22;36061;48.116;11.612;2023-08-12T11:45:42;27.70;99.90
50162;DHT22;36061;48.116;11.612;2023-08-12T11:48:09;27.70;99.90
50162;DHT22;36061;48.116;11.612;2023-08-12T11:50:37;27.70;99.90
50162;DHT22;36061;48.116;11.612;2023-08-12T11:53:06;27.80;99.90
50162;DHT22;36061;48.116;11.612;2023-08-12T11:55:33;27.80;99.90
50162;DHT22;36061;48.116;11.612;2023-08-12T11:58:01;27.80;99.90
50162;DHT22;36061;48.116;11.612;2023-08-12T12:00:29;27.90;99.90
50162;DHT22;36061;48.116;11.612;2023-08-12T12:02:56;27.90;99.90
50162;DHT22;36061;48.116;11.612;2023-08-12T12:05:26;27.90;99.90
50162;DHT22;36061;48.116;11.612;2023-08-12T12:07:53;28.00;99.90
50162;DHT22;36061;48.116;11.612;2023-08-12T12:10:28;28.10;99.90
50162;DHT22;36061;48.116;11.612;2023-08-12T12:12:56;28.10;99.90
50162;DHT22;36061;48.116;11.612;2023-08-12T12:15:24;28.10;99.90
50162;DHT22;36061;48.116;11.612;2023-08-12T12:17:51;28.10;99.90
50162;DHT22;36061;48.116;11.612;2023-08-12T12:20:19;28.10;99.90
50162;DHT22;36061;48.116;11.612;2023-08-12T12:22:47;28.10;99.90
50162;DHT22;36061;48.116;11.612;2023-08-12T12:25:15;28.20;99.90
50162;DHT22;36061;48.116;11.612;2023-08-12T12:27:46;28.10;99.70
50162;DHT22;36061;48.116;11.612;2023-08-12T12:30:15;28.10;99.70
50162;DHT22;36061;48.116;11.612;2023-08-12T12:32:43;28.20;99.70
50162;DHT22;36061;48.116;11.612;2023-08-12T12:35:10;28.20;99.70
50162;DHT22;36061;48.116;11.612;2023-08-12T12:37:38;28.20;98.90
50162;DHT22;36061;48.116;11.612;2023-08-12T12:40:06;28.30;98.80
50162;DHT22;36061;48.116;11.612;2023-08-12T12:42:34;28.40;99.10
50162;DHT22;36061;48.116;11.612;2023-08-12T12:45:03;28.50;98.30
50162;DHT22;36061;48.116;11.612;2023-08-12T12:47:30;28.70;98.50
50162;DHT22;36061;48.116;11.612;2023-08-12T12:49:57;28.70;98.40
50162;DHT22;36061;48.116;11.612;2023-08-12T12:52:25;28.70;98.60
50162;DHT22;36061;48.116;11.612;2023-08-12T12:54:52;28.70;98.80
50162;DHT22;36061;48.116;11.612;2023-08-12T12:57:19;28.60;99.10
50162;DHT22;36061;48.116;11.612;2023-08-12T12:59:46;28.60;99.20
50162;DHT22;36061;48.116;11.612;2023-08-12T13:02:15;28.60;99.40
50162;DHT22;36061;48.116;11.612;2023-08-12T13:04:42;28.60;99.40
50162;DHT22;36061;48.116;11.612;2023-08-12T13:07:10;28.50;99.10
50162;DHT22;36061;48.116;11.612;2023-08-12T13:09:37;28.40;99.40
50162;DHT22;36061;48.116;11.612;2023-08-12T13:12:05;28.40;99.40
50162;DHT22;36061;48.116;11.612;2023-08-12T13:14:32;28.40;99.70
50162;DHT22;36061;48.116;11.612;2023-08-12T13:16:59;28.40;99.50
50162;DHT22;36061;48.116;11.612;2023-08-12T13:19:28;28.40;99.50
50162;DHT22;36061;48.116;11.612;2023-08-12T13:21:55;28.40;99.70
50162;DHT22;36061;48.116;11.612;2023-08-12T13:24:22;28.40;99.80
50162;DHT22;36061;48.116;11.612;2023-08-12T13:26:49;28.40;99.90
50162;DHT22;36061;48.116;11.612;2023-08-12T13:29:18;28.40;99.90
50162;DHT22;36061;48.116;11.612;2023-08-12T13:31:45;28.40;99.90
50162;DHT22;36061;48.116;11.612;2023-08-12T13:34:12;28.40;99.90
50162;DHT22;36061;48.116;11.612;2023-08-12T13:36:41;28.50;99.80
50162;DHT22;36061;48.116;11.612;2023-08-12T13:39:09;28.60;99.50
50162;DHT22;36061;48.116;11.612;2023-08-12T13:41:36;28.70;99.40
50162;DHT22;36061;48.116;11.612;2023-08-12T13:44:04;28.70;99.20
50162;DHT22;36061;48.116;11.612;2023-08-12T13:46:31;28.70;98.70
50162;DHT22;36061;48.116;11.612;2023-08-12T13:48:58;28.70;98.90
50162;DHT22;36061;48.116;11.612;2023-08-12T13:51:26;28.70;98.80
50162;DHT22;36061;48.116;11.612;2023-08-12T13:53:54;28.70;98.30
50162;DHT22;36061;48.116;11.612;2023-08-12T13:56:22;28.70;98.40
50162;DHT22;36061;48.116;11.612;2023-08-12T13:58:49;28.70;98.80
50162;DHT22;36061;48.116;11.612;2023-08-12T14:01:16;28.70;98.60
50162;DHT22;36061;48.116;11.612;2023-08-12T14:03:43;28.80;98.60
50162;DHT22;36061;48.116;11.612;2023-08-12T14:06:11;28.80;98.60
50162;DHT22;36061;48.116;11.612;2023-08-12T14:08:38;28.80;98.40
50162;DHT22;36061;48.116;11.612;2023-08-12T14:11:06;28.80;97.80
50162;DHT22;36061;48.116;11.612;2023-08-12T14:13:33;28.80;97.90
50162;DHT22;36061;48.116;11.612;2023-08-12T14:16:01;28.80;97.90
50162;DHT22;36061;48.116;11.612;2023-08-12T14:18:28;28.80;98.10
50162;DHT22;36061;48.116;11.612;2023-08-12T14:20:55;28.80;98.00
50162;DHT22;36061;48.116;11.612;2023-08-12T14:23:22;28.90;98.00
50162;DHT22;36061;48.116;11.612;2023-08-12T14:25:50;29.00;97.90
50162;DHT22;36061;48.116;11.612;2023-08-12T14:28:18;29.00;97.70
50162;DHT22;36061;48.116;11.612;2023-08-12T14:30:46;29.00;97.50
50162;DHT22;36061;48.116;11.612;2023-08-12T14:33:13;29.00;97.30
50162;DHT22;36061;48.116;11.612;2023-08-12T14:35:40;28.90;97.40
50162;DHT22;36061;48.116;11.612;2023-08-12T14:38:07;28.80;97.30
50162;DHT22;36061;48.116;11.612;2023-08-12T14:40:34;28.80;97.60
50162;DHT22;36061;48.116;11.612;2023-08-12T14:43:01;28.70;97.70
50162;DHT22;36061;48.116;11.612;2023-08-12T14:45:30;28.70;97.10
50162;DHT22;36061;48.116;11.612;2023-08-12T14:47:57;28.80;96.40
50162;DHT22;36061;48.116;11.612;2023-08-12T14:50:24;28.80;96.80
50162;DHT22;36061;48.116;11.612;2023-08-12T14:52:52;28.90;97.00
50162;DHT22;36061;48.116;11.612;2023-08-12T14:55:19;28.90;97.30
50162;DHT22;36061;48.116;11.612;2023-08-12T14:57:47;28.90;97.40
50162;DHT22;36061;48.116;11.612;2023-08-12T15:00:14;28.90;97.40
50162;DHT22;36061;48.116;11.612;2023-08-12T15:02:43;28.90;97.70
50162;DHT22;36061;48.116;11.612;2023-08-12T15:05:10;28.80;97.30
50162;DHT22;36061;48.116;11.612;2023-08-12T15:07:38;28.80;97.40
50162;DHT22;36061;48.116;11.612;2023-08-12T15:10:05;28.80;97.20
50162;DHT22;36061;48.116;11.612;2023-08-12T15:12:33;28.70;96.50
50162;DHT22;36061;48.116;11.612;2023-08-12T15:15:00;28.50;96.20
50162;DHT22;36061;48.116;11.612;2023-08-12T15:17:27;28.30;95.90
50162;DHT22;36061;48.116;11.612;2023-08-12T15:19:56;28.20;96.00